메인 페이지
METAR-TAF:

METAR-TAF

공항 :

함반토타, 스리랑카

위도: 06-17-20N, 경도: 81-07-25E, 고도: 48m

현재 날씨관측

예보는 2 시간 41분 전, 21:10시(UTC)에 발표되었습니다.
북동3kt
온도 24°C
습도 100%
기압 1009 hPa
시정: 9000m
고도 1800ft 상공 구름 조금

METAR: VCRI 312110Z 05003KT 9000 FEW018 24/24 Q1009 NOSIG

시각: 05:21 (23:51 UTC)

예보

예보는 51분 전, 23:00시(UTC)에 발표되었습니다.
예보 대상 시간: 01일 00시부터 02일 06시까지 (UTC)
여러 방향의 바람 5kt
시정 10km 이상
고도 1800ft 상공 구름 조금
전환 중
01일 05시부터 01일 07시까지 (UTC)
동남동14kt
전환 중
01일 13시부터 01일 15시까지 (UTC)
여러 방향의 바람 5kt

TAF: VCRI 312300Z 0100/0206 VRB05KT 9999 FEW018 TX35/0107Z TN24/0200Z BECMG 0105/0107 12014KT BECMG 0113/0115 VRB05KT

4,000개 이상의 공항 관측 자료 및 예보 (METAR 및 TAF 보고).

지도상에서 검색 가능한 기상관측소가 노란 점과 빨간 점으로 표시되어 있습니다.

기상관측소 명을 보려면 표시 위로 마우스를 이동하세요.

날씨 관측과 예보를 보려면 클릭하세요.

지도 변경 : 확대하려면 엑스 표시가 있는 녹색 버튼, 축소하려면 빼기 표시가 있는 녹색 버튼, 다음 페이지의 지도를 보려면 녹색 화살표를 클릭하세요.


METAR-TAF: